Time;durP1;ratioP1;P1;durP2;ratioP2;P2;SDS_P1;SDS_P2;PMS_P1;PMS_P2;Temp;Humidity;BMP_temperature;BMP_pressure;BME280_temperature;BME280_humidity;BME280_pressure;Samples;Min_cycle;Max_cycle;Signal;HPM_P1;HPM_P2
2023/03/21 00:02:28;;;;;;;5.05;2.67;;;;;;;9.70;94.16;100032.47;12263703;19;20006;-80
2023/03/21 00:06:31;;;;;;;7.70;3.45;;;;;;;9.72;93.34;100008.28;12276844;19;20040;-81
2023/03/21 00:10:32;;;;;;;4.53;2.60;;;;;;;9.70;93.28;100022.31;12254074;19;20006;-80
2023/03/21 00:14:44;;;;;;;7.85;2.90;;;;;;;9.68;92.93;100012.63;12200107;19;20023;-82
2023/03/21 00:18:51;;;;;;;6.55;2.88;;;;;;;9.70;92.30;100007.72;12217567;19;20038;-83
2023/03/21 00:22:52;;;;;;;8.05;3.00;;;;;;;9.73;92.18;100008.06;12193813;19;20010;-83
2023/03/21 00:26:55;;;;;;;4.82;1.98;;;;;;;9.74;92.17;100003.41;12215450;19;20386;-83
2023/03/21 00:31:10;;;;;;;5.68;2.53;;;;;;;9.71;92.48;99998.38;12213136;19;20006;-81
2023/03/21 00:35:12;;;;;;;8.55;2.83;;;;;;;9.67;91.88;99994.44;12188333;19;20010;-82
2023/03/21 00:39:34;;;;;;;7.90;2.63;;;;;;;9.67;91.51;99994.44;12209870;19;20003;-82
2023/03/21 00:43:36;;;;;;;7.00;2.55;;;;;;;9.67;90.32;99994.44;12209217;19;20010;-82
2023/03/21 00:47:38;;;;;;;5.22;2.65;;;;;;;9.71;90.65;99981.88;12186103;19;20528;-82
2023/03/21 00:51:42;;;;;;;3.95;2.03;;;;;;;9.71;90.67;99976.38;12209584;19;20007;-82
2023/03/21 00:55:44;;;;;;;11.05;2.65;;;;;;;9.71;90.34;99971.69;12206582;19;20006;-82
2023/03/21 00:59:45;;;;;;;4.18;2.08;;;;;;;9.67;90.27;99967.75;12188098;19;20447;-82
2023/03/21 01:03:49;;;;;;;5.22;2.92;;;;;;;9.61;90.33;99963.22;12209040;19;20006;-81
2023/03/21 01:07:52;;;;;;;6.93;2.60;;;;;;;9.58;91.78;99964.53;12175330;19;20492;-82
2023/03/21 01:11:53;;;;;;;9.13;2.50;;;;;;;9.51;93.16;99958.28;12209651;19;19999;-82
2023/03/21 01:15:56;;;;;;;4.68;2.38;;;;;;;9.49;91.54;99965.13;12204529;19;20006;-82
2023/03/21 01:19:58;;;;;;;4.95;2.67;;;;;;;9.52;90.81;99959.16;12187439;19;20030;-81
2023/03/21 01:24:00;;;;;;;8.63;2.60;;;;;;;9.53;90.96;99955.31;12219001;19;20089;-81
2023/03/21 01:28:06;;;;;;;6.95;2.60;;;;;;;9.45;91.30;99958.41;12260259;19;20034;-79
2023/03/21 01:32:08;;;;;;;6.10;2.67;;;;;;;9.32;91.73;99949.34;12208696;19;20381;-82
2023/03/21 01:36:15;;;;;;;7.25;3.53;;;;;;;9.17;92.64;99948.13;12211690;19;20007;-81
2023/03/21 01:40:22;;;;;;;8.20;2.58;;;;;;;8.99;93.75;99949.91;12212378;19;20006;-81
2023/03/21 01:44:27;;;;;;;5.00;2.58;;;;;;;8.83;94.65;99942.31;12178594;19;20042;-81
2023/03/21 01:48:29;;;;;;;5.13;2.80;;;;;;;8.66;94.68;99940.25;12200387;19;20036;-82
2023/03/21 01:52:37;;;;;;;7.53;2.78;;;;;;;8.53;95.74;99945.09;12198534;19;20010;-82
2023/03/21 01:56:52;;;;;;;8.73;2.55;;;;;;;8.39;96.06;99938.97;12181003;19;20010;-80
2023/03/21 02:00:55;;;;;;;6.60;2.92;;;;;;;8.23;97.08;99941.22;12204734;19;20026;-82
2023/03/21 02:05:23;;;;;;;7.38;2.85;;;;;;;8.11;96.97;99942.25;12180325;19;20034;-82
2023/03/21 02:09:30;;;;;;;7.18;2.75;;;;;;;8.03;97.35;99937.94;12203517;19;20026;-82
2023/03/21 02:13:32;;;;;;;7.10;2.70;;;;;;;7.94;97.93;99931.91;12202935;19;20014;-81
2023/03/21 02:17:52;;;;;;;5.55;2.42;;;;;;;7.89;98.68;99925.44;12180089;19;20772;-81
2023/03/21 02:22:44;;;;;;;5.95;2.33;;;;;;;7.81;99.65;99923.00;12202033;19;21914;-81
2023/03/21 02:27:05;;;;;;;5.35;2.47;;;;;;;7.73;99.92;99916.75;12182406;19;20010;-82
2023/03/21 02:31:40;;;;;;;5.65;2.00;;;;;;;7.68;100.00;99913.84;12206681;19;20010;-81
2023/03/21 02:36:04;;;;;;;7.82;2.80;;;;;;;7.64;100.00;99909.03;12181376;19;20003;-81
2023/03/21 02:40:30;;;;;;;6.78;3.15;;;;;;;7.59;100.00;99906.16;12201490;19;20006;-81
2023/03/21 02:44:49;;;;;;;6.95;3.00;;;;;;;7.55;100.00;99908.50;12183537;19;20043;-81
2023/03/21 02:49:05;;;;;;;5.60;2.63;;;;;;;7.51;100.00;99894.41;12197505;19;20013;-81
2023/03/21 02:53:10;;;;;;;7.40;3.00;;;;;;;7.49;100.00;99903.91;12182008;19;20113;-82
2023/03/21 02:57:17;;;;;;;6.90;2.45;;;;;;;7.49;100.00;99899.28;12203894;19;20046;-82
2023/03/21 03:01:19;;;;;;;8.25;2.58;;;;;;;7.50;100.00;99900.13;12201987;19;21213;-81
2023/03/21 03:05:26;;;;;;;6.28;2.92;;;;;;;7.53;100.00;99897.78;12179845;19;20035;-83
2023/03/21 03:09:51;;;;;;;8.02;3.00;;;;;;;7.59;100.00;99889.72;12199651;19;20117;-81
2023/03/21 03:14:01;;;;;;;5.72;2.58;;;;;;;7.65;100.00;99897.84;12177144;19;20026;-82
2023/03/21 03:18:48;;;;;;;4.43;2.33;;;;;;;7.81;100.00;99892.81;12227124;19;20007;-81
2023/03/21 03:23:06;;;;;;;8.05;2.58;;;;;;;7.94;100.00;99892.63;12224260;19;20932;-82
2023/03/21 03:27:14;;;;;;;8.52;2.90;;;;;;;8.03;99.92;99895.91;12240997;19;20357;-82
2023/03/21 03:31:24;;;;;;;6.50;2.90;;;;;;;8.04;99.90;99897.59;12219341;19;20009;-82
2023/03/21 03:35:31;;;;;;;7.55;2.63;;;;;;;7.97;100.00;99884.81;12195138;19;19998;-81
2023/03/21 03:40:00;;;;;;;7.47;3.00;;;;;;;7.91;100.00;99888.47;12242086;19;20007;-80
2023/03/21 03:44:04;;;;;;;7.53;3.10;;;;;;;7.87;100.00;99886.41;12187374;19;20093;-81
2023/03/21 03:48:25;;;;;;;9.05;2.75;;;;;;;7.89;100.00;99887.03;12203870;19;20008;-81
2023/03/21 03:52:39;;;;;;;7.57;2.83;;;;;;;7.96;100.00;99879.53;12204206;19;20014;-81
2023/03/21 03:56:57;;;;;;;7.03;2.75;;;;;;;8.03;100.00;99879.44;12182743;19;20034;-82
2023/03/21 04:00:59;;;;;;;10.95;4.18;;;;;;;8.09;99.89;99879.38;12203211;19;20054;-81
2023/03/21 04:05:03;;;;;;;6.63;3.03;;;;;;;8.17;99.37;99879.03;12181735;19;20018;-81
2023/03/21 04:09:07;;;;;;;5.32;2.58;;;;;;;8.29;99.44;99880.97;12214495;19;20144;-81
2023/03/21 04:13:22;;;;;;;9.45;3.28;;;;;;;8.37;99.40;99864.19;12204994;19;20018;-82
2023/03/21 04:17:35;;;;;;;7.90;2.50;;;;;;;8.46;99.07;99873.78;12181431;19;20018;-82
2023/03/21 04:21:37;;;;;;;8.27;3.50;;;;;;;8.50;99.17;99871.41;12205784;19;20101;-82
2023/03/21 04:25:39;;;;;;;7.20;2.90;;;;;;;8.52;99.08;99872.84;12207554;19;20023;-82
2023/03/21 04:29:59;;;;;;;6.40;2.70;;;;;;;8.47;99.10;99864.47;12181974;19;20020;-81
2023/03/21 04:34:39;;;;;;;5.93;3.30;;;;;;;8.35;99.47;99867.16;12199888;19;20024;-81
2023/03/21 04:38:42;;;;;;;6.95;2.55;;;;;;;8.26;99.83;99867.72;12183837;19;20014;-81
2023/03/21 04:42:44;;;;;;;;;;;;;;;8.15;100.00;99870.19;12201670;19;20013;-82
2023/03/21 04:46:46;;;;;;;10.25;2.70;;;;;;;8.09;99.61;99867.53;12187784;19;19919;-81
2023/03/21 04:50:50;;;;;;;8.23;3.10;;;;;;;8.01;100.00;99871.44;12202009;19;20091;-81
2023/03/21 04:54:51;;;;;;;6.80;2.97;;;;;;;7.93;100.00;99864.38;12201096;19;20007;-81
2023/03/21 04:58:53;;;;;;;9.50;3.27;;;;;;;7.85;100.00;99872.06;12180681;19;20338;-80
2023/03/21 05:02:56;;;;;;;5.63;2.90;;;;;;;7.80;100.00;99875.53;12199545;19;20011;-81
2023/03/21 05:06:58;;;;;;;9.23;2.67;;;;;;;7.81;100.00;99871.69;12200018;19;20463;-81
2023/03/21 05:11:00;;;;;;;5.87;2.70;;;;;;;7.85;100.00;99863.84;12180546;19;19998;-81
2023/03/21 05:15:04;;;;;;;5.82;2.90;;;;;;;7.94;99.81;99867.94;12206030;19;20688;-82
2023/03/21 05:19:06;;;;;;;6.80;3.05;;;;;;;8.00;99.55;99861.53;12199234;19;20007;-83
2023/03/21 05:23:17;;;;;;;7.55;3.20;;;;;;;8.04;99.92;99856.44;12180132;19;19999;-82
2023/03/21 05:27:34;;;;;;;7.13;3.30;;;;;;;8.03;100.00;99852.84;12199546;19;20010;-81
2023/03/21 05:31:39;;;;;;;5.57;2.55;;;;;;;7.96;100.00;99854.84;12200861;19;20825;-80
2023/03/21 05:35:45;;;;;;;6.10;3.20;;;;;;;7.91;100.00;99861.03;12178900;19;20460;-82
2023/03/21 05:39:47;;;;;;;7.23;3.20;;;;;;;7.86;100.00;99846.34;12200475;19;20007;-82
2023/03/21 05:43:59;;;;;;;9.27;3.50;;;;;;;7.83;100.00;99855.03;12181304;19;20006;-81
2023/03/21 05:48:01;;;;;;;10.25;3.17;;;;;;;7.82;100.00;99851.41;12199348;19;20551;-82
2023/03/21 05:52:08;;;;;;;8.70;3.80;;;;;;;7.83;100.00;99844.06;12203911;19;20008;-81
2023/03/21 05:56:10;;;;;;;6.15;3.33;;;;;;;7.85;100.00;99842.75;12179939;19;20090;-82
2023/03/21 06:00:26;;;;;;;11.60;4.30;;;;;;;7.91;100.00;99849.19;12202232;19;20006;-83
2023/03/21 06:05:01;;;;;;;6.97;3.72;;;;;;;7.95;100.00;99850.44;12190580;19;20014;-80
2023/03/21 06:09:03;;;;;;;9.07;3.53;;;;;;;7.99;100.00;99857.94;12225061;19;20024;-80
2023/03/21 06:13:05;;;;;;;6.80;3.30;;;;;;;8.09;100.00;99862.91;12216662;19;20006;-81
2023/03/21 06:17:08;;;;;;;7.93;3.83;;;;;;;8.15;100.00;99851.00;12177571;19;20014;-82
2023/03/21 06:21:17;;;;;;;8.48;3.40;;;;;;;8.29;100.00;99853.53;12245419;19;20041;-79
2023/03/21 06:25:20;;;;;;;6.82;3.55;;;;;;;8.52;100.00;99852.78;12235088;19;20006;-79
2023/03/21 06:29:27;;;;;;;8.43;3.53;;;;;;;8.75;100.00;99850.09;12245962;19;20030;-78
2023/03/21 06:33:29;;;;;;;8.35;2.92;;;;;;;8.93;99.99;99862.06;12259672;19;20047;-78
2023/03/21 06:37:31;;;;;;;8.73;3.10;;;;;;;9.28;98.49;99870.28;12212152;19;20479;-81
2023/03/21 06:41:35;;;;;;;10.35;3.50;;;;;;;9.73;97.04;99870.47;12178708;19;20089;-83
2023/03/21 06:45:42;;;;;;;7.50;3.78;;;;;;;10.26;95.37;99869.38;12194232;19;20026;-80
2023/03/21 06:49:46;;;;;;;9.55;3.35;;;;;;;10.70;91.45;99877.03;12190400;19;20015;-81
2023/03/21 06:53:48;;;;;;;9.70;3.15;;;;;;;10.90;87.75;99866.34;12192171;19;20033;-79
2023/03/21 06:57:59;;;;;;;6.50;3.22;;;;;;;10.88;86.15;99874.03;12193064;19;20007;-79
2023/03/21 07:02:02;;;;;;;6.97;3.25;;;;;;;10.85;85.63;99874.53;12171734;19;20006;-80
2023/03/21 07:06:15;;;;;;;9.23;3.75;;;;;;;10.99;84.79;99868.69;12190462;19;20003;-80
2023/03/21 07:10:19;;;;;;;6.45;3.75;;;;;;;11.23;83.69;99875.69;12194851;19;20023;-79
2023/03/21 07:14:34;;;;;;;8.63;3.60;;;;;;;11.50;83.11;99866.72;12171248;19;20043;-81
2023/03/21 07:18:37;;;;;;;10.60;3.92;;;;;;;11.64;81.49;99865.25;12188108;19;20066;-81
2023/03/21 07:22:41;;;;;;;9.85;3.40;;;;;;;11.88;81.47;99876.91;12192481;19;20027;-79
2023/03/21 07:26:44;;;;;;;10.65;3.70;;;;;;;12.11;80.18;99881.34;12170966;19;20015;-82
2023/03/21 07:30:52;;;;;;;8.23;3.55;;;;;;;12.28;78.72;99892.28;12192316;19;20006;-80
2023/03/21 07:34:55;;;;;;;8.25;3.92;;;;;;;12.41;78.41;99888.31;12167703;19;20039;-81
2023/03/21 07:38:56;;;;;;;9.13;4.10;;;;;;;12.46;76.63;99885.56;12188904;19;20353;-81
2023/03/21 07:43:00;;;;;;;10.52;3.83;;;;;;;12.59;75.73;99882.41;12190161;19;20031;-81
2023/03/21 07:47:08;;;;;;;7.82;3.45;;;;;;;12.85;74.31;99879.84;12167714;19;20031;-82
2023/03/21 07:51:11;;;;;;;8.85;3.05;;;;;;;13.16;70.91;99876.25;12193765;19;20055;-81
2023/03/21 07:55:13;;;;;;;6.07;2.97;;;;;;;13.35;70.15;99878.63;12190193;19;20078;-81
2023/03/21 07:59:14;;;;;;;5.60;3.20;;;;;;;13.57;69.96;99870.19;12169802;19;20010;-82
2023/03/21 08:03:16;;;;;;;7.65;3.42;;;;;;;13.63;68.35;99878.25;12193009;19;20535;-81
2023/03/21 08:07:21;;;;;;;8.32;3.22;;;;;;;13.64;67.64;99879.91;12204477;19;20078;-84
2023/03/21 08:11:23;;;;;;;6.65;3.10;;;;;;;13.54;66.15;99873.50;12177604;19;20128;-81
2023/03/21 08:15:25;;;;;;;5.60;3.53;;;;;;;13.55;66.92;99872.41;12200100;19;20006;-82
2023/03/21 08:19:31;;;;;;;10.73;4.10;;;;;;;13.68;66.74;99869.13;12201814;19;20399;-82
2023/03/21 08:23:33;;;;;;;9.63;4.57;;;;;;;13.94;66.85;99869.25;12179184;19;20003;-80
2023/03/21 08:27:35;;;;;;;9.98;3.60;;;;;;;14.13;64.76;99868.50;12204849;19;20027;-79
2023/03/21 08:31:41;;;;;;;9.48;4.50;;;;;;;14.33;62.22;99875.22;12218563;19;20014;-78
2023/03/21 08:35:43;;;;;;;8.40;4.00;;;;;;;14.53;62.22;99877.22;12180051;19;20007;-81
2023/03/21 08:39:45;;;;;;;7.43;3.58;;;;;;;14.83;61.62;99870.88;12200964;19;20050;-80
2023/03/21 08:43:47;;;;;;;7.88;3.45;;;;;;;15.27;59.29;99871.16;12190779;19;20107;-81
2023/03/21 08:47:49;;;;;;;9.60;3.57;;;;;;;15.59;57.37;99880.28;12201853;19;20038;-78
2023/03/21 08:51:55;;;;;;;9.53;3.50;;;;;;;15.81;55.60;99875.22;12223997;19;20018;-81
2023/03/21 08:55:58;;;;;;;7.45;3.70;;;;;;;16.00;55.81;99866.25;12217637;19;20015;-82
2023/03/21 09:00:13;;;;;;;9.00;3.78;;;;;;;16.09;56.46;99872.88;12235505;19;20018;-81
2023/03/21 09:04:17;;;;;;;6.47;3.42;;;;;;;16.16;55.10;99881.75;12229570;19;20013;-80
2023/03/21 09:08:22;;;;;;;6.63;3.45;;;;;;;16.02;55.29;99877.94;12221960;19;20002;-79
2023/03/21 09:12:25;;;;;;;9.02;4.30;;;;;;;15.86;54.73;99863.28;12243741;19;20044;-82
2023/03/21 09:16:27;;;;;;;6.20;4.17;;;;;;;15.85;56.42;99867.97;12233146;19;20006;-79
2023/03/21 09:20:31;;;;;;;;;;;;;;;15.74;55.26;99869.16;12214573;19;20074;-80
2023/03/21 09:24:33;;;;;;;10.30;4.10;;;;;;;15.85;55.84;99864.38;12219214;19;19911;-82
2023/03/21 09:28:37;;;;;;;6.20;3.92;;;;;;;16.08;56.25;99866.50;12205928;19;20003;-84
2023/03/21 09:32:40;;;;;;;8.65;3.60;;;;;;;16.02;55.26;99859.31;12184475;19;20007;-83
2023/03/21 09:36:47;;;;;;;8.73;3.85;;;;;;;16.10;55.80;99860.66;12200834;19;20482;-84
2023/03/21 09:41:03;;;;;;;7.35;3.90;;;;;;;16.16;54.60;99870.66;12182472;19;20017;-83
2023/03/21 09:45:15;;;;;;;9.57;3.67;;;;;;;16.13;54.10;99868.44;12200150;19;20007;-84
2023/03/21 09:49:24;;;;;;;8.00;3.60;;;;;;;16.04;54.10;99865.41;12201272;19;19998;-84
2023/03/21 09:53:34;;;;;;;6.82;3.42;;;;;;;15.97;53.57;99855.72;12180047;19;20006;-81
2023/03/21 09:57:42;;;;;;;6.18;3.47;;;;;;;16.05;52.63;99860.69;12199621;19;20042;-80
2023/03/21 10:01:46;;;;;;;9.73;4.07;;;;;;;15.98;53.29;99858.22;12202258;19;20026;-84
2023/03/21 10:05:51;;;;;;;7.03;3.15;;;;;;;16.00;53.32;99861.53;12177472;19;20018;-83
2023/03/21 10:09:59;;;;;;;5.82;2.70;;;;;;;16.18;53.12;99860.06;12199770;19;20080;-84
2023/03/21 10:14:12;;;;;;;9.63;3.00;;;;;;;16.27;51.97;99863.06;12177917;19;20038;-83
2023/03/21 10:18:25;;;;;;;7.95;3.10;;;;;;;16.48;51.09;99858.22;12196173;19;20002;-84
2023/03/21 10:22:27;;;;;;;5.73;2.70;;;;;;;16.45;50.78;99861.56;12198614;19;19998;-83
2023/03/21 10:26:29;;;;;;;7.47;3.03;;;;;;;16.23;50.55;99857.25;12176418;19;20263;-82
2023/03/21 10:31:00;;;;;;;8.93;3.20;;;;;;;16.12;50.68;99852.84;12197211;19;20026;-83
2023/03/21 10:35:03;;;;;;;10.13;2.88;;;;;;;16.05;51.88;99857.91;12176079;19;20087;-82
2023/03/21 10:39:14;;;;;;;6.50;2.28;;;;;;;15.97;52.67;99858.50;12191296;19;20026;-81
2023/03/21 10:43:30;;;;;;;4.85;2.55;;;;;;;15.83;52.61;99855.50;12194068;19;20011;-81
2023/03/21 10:47:34;;;;;;;7.40;1.98;;;;;;;15.65;53.40;99856.94;12173728;19;20520;-84
2023/03/21 10:51:38;;;;;;;8.43;2.50;;;;;;;15.57;53.92;99851.94;12199864;19;20010;-82
2023/03/21 10:55:41;;;;;;;7.28;2.47;;;;;;;15.48;53.27;99846.13;12202413;19;20021;-83
2023/03/21 10:59:52;;;;;;;8.93;3.08;;;;;;;15.69;53.91;99846.94;12173529;19;20010;-85
2023/03/21 11:04:04;;;;;;;6.85;2.45;;;;;;;15.70;53.29;99843.03;12196995;19;20010;-82
2023/03/21 11:08:13;;;;;;;4.83;2.63;;;;;;;15.70;53.84;99855.00;12173861;19;20023;-84
2023/03/21 11:12:26;;;;;;;8.15;2.40;;;;;;;15.62;55.81;99844.44;12197887;19;20483;-84
2023/03/21 11:16:39;;;;;;;7.20;2.08;;;;;;;15.40;56.30;99857.81;12227709;19;20005;-84
2023/03/21 11:20:57;;;;;;;6.05;2.38;;;;;;;14.96;56.54;99847.28;12227249;19;20009;-85
2023/03/21 11:25:01;;;;;;;5.75;2.15;;;;;;;14.68;59.73;99846.75;12200257;19;20098;-85
2023/03/21 11:29:23;;;;;;;7.70;3.13;;;;;;;14.67;63.47;99858.13;12174361;19;20102;-81
2023/03/21 11:33:31;;;;;;;10.60;2.83;;;;;;;14.40;64.81;99845.31;12193986;19;20495;-80
2023/03/21 11:37:49;;;;;;;7.30;3.60;;;;;;;14.14;68.51;99848.00;12189615;19;19999;-80
2023/03/21 11:41:52;;;;;;;6.20;3.13;;;;;;;14.03;69.54;99846.28;12175537;19;20002;-80
2023/03/21 11:46:00;;;;;;;5.82;3.30;;;;;;;14.12;71.04;99849.38;12200272;19;20003;-79
2023/03/21 11:50:02;;;;;;;9.05;3.50;;;;;;;14.09;72.16;99852.69;12175542;19;20029;-80
2023/03/21 11:54:25;;;;;;;7.97;3.53;;;;;;;14.07;74.02;99844.66;12200932;19;20011;-79
2023/03/21 11:58:51;;;;;;;9.38;3.40;;;;;;;14.21;75.87;99835.81;12198552;19;20011;-79
2023/03/21 12:03:02;;;;;;;8.57;3.92;;;;;;;14.40;75.99;99830.63;12180754;19;20003;-80
2023/03/21 12:07:14;;;;;;;9.95;3.30;;;;;;;14.62;76.50;99824.84;12200816;19;20003;-79
2023/03/21 12:11:28;;;;;;;6.93;3.58;;;;;;;14.79;76.79;99814.31;12182107;19;20134;-79
2023/03/21 12:15:41;;;;;;;8.30;3.70;;;;;;;14.79;76.63;99803.22;12207493;19;20356;-79
2023/03/21 12:19:56;;;;;;;9.13;3.33;;;;;;;14.80;78.63;99796.53;12208479;19;20014;-80
2023/03/21 12:24:08;;;;;;;8.00;3.63;;;;;;;14.86;80.83;99789.88;12189438;19;20023;-78
2023/03/21 12:28:23;;;;;;;8.88;3.45;;;;;;;15.03;79.31;99793.19;12219399;19;20006;-78
2023/03/21 12:32:52;;;;;;;5.70;3.22;;;;;;;15.21;76.91;99777.91;12250743;19;20047;-77
2023/03/21 12:37:09;;;;;;;7.80;3.53;;;;;;;15.45;74.82;99771.72;12255694;19;20010;-79
2023/03/21 12:41:26;;;;;;;6.15;3.05;;;;;;;15.67;73.27;99761.09;12181227;19;20066;-80
2023/03/21 12:45:32;;;;;;;6.18;3.45;;;;;;;15.75;73.84;99764.41;12200121;19;20006;-79
2023/03/21 12:49:54;;;;;;;7.78;4.32;;;;;;;15.68;72.32;99754.44;12181584;19;20010;-79
2023/03/21 12:54:09;;;;;;;11.00;4.75;;;;;;;15.87;73.00;99751.81;12199204;19;20472;-79
2023/03/21 12:58:17;;;;;;;9.50;4.15;;;;;;;16.01;70.77;99745.66;12207125;19;20055;-80
2023/03/21 13:02:30;;;;;;;10.65;4.47;;;;;;;15.91;70.85;99740.97;12183326;19;20106;-80
2023/03/21 13:06:36;;;;;;;10.18;4.57;;;;;;;15.92;70.66;99737.91;12204297;19;20024;-80
2023/03/21 13:10:40;;;;;;;9.00;4.10;;;;;;;15.84;72.03;99734.91;12199468;19;20449;-80
2023/03/21 13:14:54;;;;;;;8.02;4.07;;;;;;;15.65;70.88;99718.03;12179787;19;20010;-80
2023/03/21 13:19:12;;;;;;;10.07;4.57;;;;;;;15.42;71.60;99730.63;12197986;19;20030;-81
2023/03/21 13:23:14;;;;;;;9.70;4.15;;;;;;;15.15;73.24;99725.47;12176900;19;20063;-80
2023/03/21 13:27:23;;;;;;;7.35;4.38;;;;;;;15.07;73.52;99720.47;12197087;19;20014;-80
2023/03/21 13:31:26;;;;;;;11.93;4.65;;;;;;;14.93;73.62;99714.69;12201105;19;20031;-79
2023/03/21 13:35:44;;;;;;;10.35;4.25;;;;;;;14.73;74.71;99721.13;12180520;19;20018;-79
2023/03/21 13:39:48;;;;;;;6.68;4.25;;;;;;;14.50;77.52;99715.00;12202127;19;20340;-79
2023/03/21 13:43:53;;;;;;;11.98;5.35;;;;;;;14.45;81.64;99712.22;12193343;19;20832;-78
2023/03/21 13:47:57;;;;;;;8.02;4.28;;;;;;;14.54;83.88;99706.97;12222040;19;20023;-78
2023/03/21 13:52:19;;;;;;;11.85;4.72;;;;;;;14.55;83.68;99703.94;12227419;19;21113;-78
2023/03/21 13:56:22;;;;;;;10.57;5.35;;;;;;;14.44;84.82;99702.25;12204494;19;20038;-78
2023/03/21 14:00:29;;;;;;;10.23;4.72;;;;;;;14.36;86.23;99700.03;12222235;19;20013;-78
2023/03/21 14:04:34;;;;;;;11.77;5.38;;;;;;;14.29;86.67;99696.72;12193141;19;20009;-78
2023/03/21 14:08:49;;;;;;;12.75;5.97;;;;;;;14.23;88.38;99690.34;12171088;19;20010;-78
2023/03/21 14:12:51;;;;;;;14.82;5.95;;;;;;;14.25;91.17;99681.75;12189955;19;20034;-78
2023/03/21 14:16:53;;;;;;;;;;;;;;;14.18;95.66;99687.56;12172253;19;20523;-78
2023/03/21 14:20:57;;;;;;;12.90;5.38;;;;;;;14.13;95.89;99682.03;12199247;19;19972;-78
2023/03/21 14:25:00;;;;;;;12.20;5.72;;;;;;;14.00;96.46;99686.16;12211144;19;20066;-77
2023/03/21 14:29:07;;;;;;;15.23;6.00;;;;;;;13.89;97.77;99690.88;12168205;19;20014;-78
2023/03/21 14:33:30;;;;;;;11.80;5.47;;;;;;;13.78;99.85;99677.28;12189352;19;20456;-78
2023/03/21 14:37:37;;;;;;;10.23;5.35;;;;;;;13.69;100.00;99665.91;12192488;19;20035;-78
2023/03/21 14:41:54;;;;;;;11.57;5.68;;;;;;;13.56;100.00;99650.63;12169799;19;20376;-79
2023/03/21 14:45:56;;;;;;;12.02;6.38;;;;;;;13.41;100.00;99645.91;12196007;19;20414;-78
2023/03/21 14:50:00;;;;;;;14.20;6.05;;;;;;;13.28;100.00;99640.06;12192730;19;20003;-79
2023/03/21 14:54:03;;;;;;;13.38;7.07;;;;;;;13.29;100.00;99636.16;12191759;19;20010;-78
2023/03/21 14:58:05;;;;;;;12.20;6.65;;;;;;;13.43;100.00;99618.78;12193051;19;20128;-78
2023/03/21 15:02:17;;;;;;;10.32;6.82;;;;;;;13.56;100.00;99611.88;12174647;19;20000;-78
2023/03/21 15:06:20;;;;;;;19.45;6.32;;;;;;;13.44;100.00;99616.84;12193449;19;20119;-78
2023/03/21 15:10:24;;;;;;;12.85;6.20;;;;;;;13.39;100.00;99603.84;12190403;19;20018;-78
2023/03/21 15:14:35;;;;;;;11.63;5.57;;;;;;;13.39;100.00;99623.22;12175647;19;20496;-78
2023/03/21 15:18:38;;;;;;;20.65;9.43;;;;;;;13.33;100.00;99617.94;12203504;19;20489;-78
2023/03/21 15:22:51;;;;;;;23.30;9.52;;;;;;;13.42;100.00;99625.44;12205626;19;20002;-78
2023/03/21 15:27:03;;;;;;;20.60;9.07;;;;;;;13.52;100.00;99618.25;12180949;19;20460;-78
2023/03/21 15:31:15;;;;;;;20.07;8.50;;;;;;;13.56;100.00;99620.19;12205047;19;20042;-78
2023/03/21 15:35:29;;;;;;;11.82;6.88;;;;;;;13.56;100.00;99617.41;12181321;19;20017;-79
2023/03/21 15:39:34;;;;;;;14.13;6.68;;;;;;;13.51;100.00;99609.13;12199848;19;20172;-79
2023/03/21 15:43:37;;;;;;;11.82;6.10;;;;;;;13.48;100.00;99606.91;12196333;19;20010;-78
2023/03/21 15:47:41;;;;;;;11.23;6.18;;;;;;;13.35;100.00;99602.69;12178761;19;20010;-78
2023/03/21 15:52:01;;;;;;;9.88;6.13;;;;;;;13.29;100.00;99594.66;12196943;19;20485;-79
2023/03/21 15:56:08;;;;;;;11.77;6.10;;;;;;;13.21;100.00;99582.19;12170524;19;20460;-78
2023/03/21 16:00:20;;;;;;;12.55;6.15;;;;;;;13.17;100.00;99561.69;12196970;19;20011;-78
2023/03/21 16:04:23;;;;;;;11.73;6.75;;;;;;;13.10;100.00;99545.34;12198390;19;20014;-78
2023/03/21 16:08:27;;;;;;;10.15;5.63;;;;;;;13.05;100.00;99569.41;12174829;19;20006;-77
2023/03/21 16:12:29;;;;;;;10.38;5.65;;;;;;;12.93;100.00;99594.53;12213447;19;20018;-77
2023/03/21 16:16:32;;;;;;;11.52;5.78;;;;;;;12.94;100.00;99590.69;12218255;19;20507;-78
2023/03/21 16:20:38;;;;;;;11.23;6.00;;;;;;;12.93;100.00;99595.34;12178105;19;20071;-79
2023/03/21 16:24:41;;;;;;;10.07;5.78;;;;;;;12.91;100.00;99596.72;12197801;19;20458;-78
2023/03/21 16:28:44;;;;;;;12.07;6.07;;;;;;;12.87;100.00;99592.84;12194843;19;20590;-78
2023/03/21 16:32:46;;;;;;;9.40;5.75;;;;;;;12.80;100.00;99587.56;12172441;19;20002;-77
2023/03/21 16:36:50;;;;;;;13.23;7.57;;;;;;;12.69;100.00;99594.97;12190839;19;20098;-77
2023/03/21 16:40:51;;;;;;;16.67;8.48;;;;;;;12.63;100.00;99587.75;12173177;19;20002;-77
2023/03/21 16:44:54;;;;;;;14.27;7.15;;;;;;;12.61;100.00;99594.66;12182703;19;20076;-77
2023/03/21 16:48:57;;;;;;;13.30;6.47;;;;;;;12.55;100.00;99588.25;12050912;19;2750653;-77
2023/03/21 16:52:59;;;;;;;9.90;5.28;;;;;;;12.48;100.00;99584.91;12170985;19;20567;-78
2023/03/21 16:57:06;;;;;;;8.00;5.05;;;;;;;12.42;100.00;99588.75;12224896;19;20011;-78
2023/03/21 17:01:14;;;;;;;13.48;5.85;;;;;;;12.37;100.00;99594.25;12212961;19;20342;-79
2023/03/21 17:05:16;;;;;;;12.02;5.25;;;;;;;12.31;100.00;99593.38;12183957;19;20003;-79
2023/03/21 17:09:22;;;;;;;11.75;5.72;;;;;;;12.25;100.00;99586.97;12196364;19;20515;-77
2023/03/21 17:13:23;;;;;;;9.00;5.35;;;;;;;12.21;100.00;99582.25;12198300;19;20006;-79
2023/03/21 17:17:25;;;;;;;13.48;5.40;;;;;;;12.16;100.00;99582.22;12181341;19;20026;-79
2023/03/21 17:21:29;;;;;;;9.35;4.85;;;;;;;12.07;100.00;99581.88;12208140;19;20365;-79
2023/03/21 17:25:31;;;;;;;10.60;5.68;;;;;;;12.04;100.00;99591.53;12199976;19;20092;-78
2023/03/21 17:29:32;;;;;;;8.52;5.05;;;;;;;12.02;100.00;99579.94;12179013;19;20687;-78
2023/03/21 17:33:34;;;;;;;14.18;5.85;;;;;;;11.94;100.00;99588.69;12200310;19;20011;-78
2023/03/21 17:37:37;;;;;;;11.15;5.22;;;;;;;11.85;100.00;99577.31;12197509;19;20087;-78
2023/03/21 17:41:39;;;;;;;10.55;5.18;;;;;;;11.79;100.00;99569.22;12176922;19;20471;-79
2023/03/21 17:45:41;;;;;;;8.32;5.22;;;;;;;11.71;100.00;99562.25;12195081;19;20014;-79
2023/03/21 17:49:43;;;;;;;8.35;5.22;;;;;;;11.66;100.00;99559.47;12200425;19;20135;-79
2023/03/21 17:53:49;;;;;;;11.60;5.38;;;;;;;11.58;100.00;99559.94;12177449;19;20027;-78
2023/03/21 17:57:51;;;;;;;10.80;5.75;;;;;;;11.50;100.00;99561.25;12195391;19;20635;-78
2023/03/21 18:01:54;;;;;;;10.23;5.53;;;;;;;11.43;100.00;99557.88;12177141;19;20084;-79
2023/03/21 18:05:56;;;;;;;12.48;5.95;;;;;;;11.37;100.00;99556.16;12201761;19;20006;-78
2023/03/21 18:09:58;;;;;;;11.05;6.32;;;;;;;11.28;100.00;99554.97;12197444;19;20033;-79
2023/03/21 18:14:00;;;;;;;13.05;6.90;;;;;;;11.20;100.00;99567.31;12178263;19;20009;-78
2023/03/21 18:18:17;;;;;;;14.02;8.38;;;;;;;11.05;100.00;99565.22;12197910;19;20018;-79
2023/03/21 18:22:21;;;;;;;17.95;9.02;;;;;;;10.92;100.00;99577.47;12198147;19;19998;-78
2023/03/21 18:26:23;;;;;;;15.27;7.35;;;;;;;10.77;100.00;99571.78;12175271;19;20063;-77
2023/03/21 18:30:25;;;;;;;13.00;6.80;;;;;;;10.63;100.00;99567.75;12201389;19;20035;-78
2023/03/21 18:34:58;;;;;;;13.25;6.72;;;;;;;10.46;100.00;99585.16;12229577;19;20014;-79
2023/03/21 18:39:01;;;;;;;14.10;7.68;;;;;;;10.37;100.00;99574.84;12259440;19;20019;-77
2023/03/21 18:43:03;;;;;;;14.40;6.97;;;;;;;10.26;100.00;99582.06;12225571;19;20006;-79
2023/03/21 18:47:25;;;;;;;13.90;6.93;;;;;;;10.17;100.00;99583.59;12172914;19;20029;-79
2023/03/21 18:51:27;;;;;;;11.90;7.10;;;;;;;10.10;100.00;99586.53;12193442;19;20030;-78
2023/03/21 18:55:29;;;;;;;18.27;7.72;;;;;;;10.10;100.00;99582.94;12196739;19;20010;-78
2023/03/21 18:59:47;;;;;;;13.27;7.07;;;;;;;10.02;100.00;99579.56;12175594;19;20007;-78
2023/03/21 19:03:48;;;;;;;16.35;8.10;;;;;;;9.97;100.00;99573.97;12194040;19;20472;-78
2023/03/21 19:08:10;;;;;;;14.25;8.15;;;;;;;9.94;100.00;99579.16;12168792;19;20011;-78